sensor_id;sensor_type;location;lat;lon;timestamp;P1;durP1;ratioP1;P2;durP2;ratioP2
4686;SDS011;2357;47.316;-1.348;2023-03-03T00:00:21;33.37;;;18.07;;
4686;SDS011;2357;47.316;-1.348;2023-03-03T00:02:46;37.90;;;17.90;;
4686;SDS011;2357;47.316;-1.348;2023-03-03T00:05:12;29.80;;;16.90;;
4686;SDS011;2357;47.316;-1.348;2023-03-03T00:07:42;35.27;;;16.77;;
4686;SDS011;2357;47.316;-1.348;2023-03-03T00:10:09;30.90;;;16.33;;
4686;SDS011;2357;47.316;-1.348;2023-03-03T00:12:35;32.43;;;17.00;;
4686;SDS011;2357;47.316;-1.348;2023-03-03T00:15:20;27.20;;;16.80;;
4686;SDS011;2357;47.316;-1.348;2023-03-03T00:17:48;30.57;;;16.97;;
4686;SDS011;2357;47.316;-1.348;2023-03-03T00:20:24;39.73;;;17.40;;
4686;SDS011;2357;47.316;-1.348;2023-03-03T00:22:51;36.53;;;20.40;;
4686;SDS011;2357;47.316;-1.348;2023-03-03T00:25:23;25.60;;;16.87;;
4686;SDS011;2357;47.316;-1.348;2023-03-03T00:27:50;30.40;;;18.53;;
4686;SDS011;2357;47.316;-1.348;2023-03-03T00:30:25;38.20;;;20.40;;
4686;SDS011;2357;47.316;-1.348;2023-03-03T00:32:52;35.37;;;21.30;;
4686;SDS011;2357;47.316;-1.348;2023-03-03T00:35:25;30.23;;;19.97;;
4686;SDS011;2357;47.316;-1.348;2023-03-03T00:37:59;37.30;;;21.27;;
4686;SDS011;2357;47.316;-1.348;2023-03-03T00:40:36;31.07;;;19.57;;
4686;SDS011;2357;47.316;-1.348;2023-03-03T00:43:14;36.63;;;20.70;;
4686;SDS011;2357;47.316;-1.348;2023-03-03T00:45:52;33.03;;;18.70;;
4686;SDS011;2357;47.316;-1.348;2023-03-03T00:48:27;31.20;;;18.90;;
4686;SDS011;2357;47.316;-1.348;2023-03-03T00:51:00;38.73;;;18.93;;
4686;SDS011;2357;47.316;-1.348;2023-03-03T00:53:30;38.60;;;18.90;;
4686;SDS011;2357;47.316;-1.348;2023-03-03T00:55:56;39.70;;;20.10;;
4686;SDS011;2357;47.316;-1.348;2023-03-03T00:58:22;34.50;;;20.90;;
4686;SDS011;2357;47.316;-1.348;2023-03-03T01:00:50;41.40;;;21.03;;
4686;SDS011;2357;47.316;-1.348;2023-03-03T01:03:19;36.40;;;17.57;;
4686;SDS011;2357;47.316;-1.348;2023-03-03T01:05:46;41.07;;;17.27;;
4686;SDS011;2357;47.316;-1.348;2023-03-03T01:08:13;34.17;;;19.70;;
4686;SDS011;2357;47.316;-1.348;2023-03-03T01:10:47;36.67;;;17.87;;
4686;SDS011;2357;47.316;-1.348;2023-03-03T01:13:15;31.23;;;19.93;;
4686;SDS011;2357;47.316;-1.348;2023-03-03T01:15:41;35.90;;;20.90;;
4686;SDS011;2357;47.316;-1.348;2023-03-03T01:18:08;42.03;;;22.13;;
4686;SDS011;2357;47.316;-1.348;2023-03-03T01:20:34;37.50;;;20.90;;
4686;SDS011;2357;47.316;-1.348;2023-03-03T01:23:00;26.87;;;16.90;;
4686;SDS011;2357;47.316;-1.348;2023-03-03T01:25:26;35.47;;;19.03;;
4686;SDS011;2357;47.316;-1.348;2023-03-03T01:27:51;33.13;;;18.13;;
4686;SDS011;2357;47.316;-1.348;2023-03-03T01:30:17;33.63;;;17.07;;
4686;SDS011;2357;47.316;-1.348;2023-03-03T01:32:43;30.97;;;17.67;;
4686;SDS011;2357;47.316;-1.348;2023-03-03T01:35:08;38.67;;;19.90;;
4686;SDS011;2357;47.316;-1.348;2023-03-03T01:37:34;37.97;;;21.17;;
4686;SDS011;2357;47.316;-1.348;2023-03-03T01:40:01;41.17;;;21.10;;
4686;SDS011;2357;47.316;-1.348;2023-03-03T01:42:28;31.60;;;19.00;;
4686;SDS011;2357;47.316;-1.348;2023-03-03T01:45:09;31.67;;;19.83;;
4686;SDS011;2357;47.316;-1.348;2023-03-03T01:47:59;36.63;;;21.10;;
4686;SDS011;2357;47.316;-1.348;2023-03-03T01:53:29;31.37;;;20.10;;
4686;SDS011;2357;47.316;-1.348;2023-03-03T01:56:03;31.80;;;20.40;;
4686;SDS011;2357;47.316;-1.348;2023-03-03T01:58:35;36.50;;;21.77;;
4686;SDS011;2357;47.316;-1.348;2023-03-03T02:01:09;40.13;;;22.07;;
4686;SDS011;2357;47.316;-1.348;2023-03-03T02:03:38;34.47;;;21.57;;
4686;SDS011;2357;47.316;-1.348;2023-03-03T02:06:06;40.80;;;22.30;;
4686;SDS011;2357;47.316;-1.348;2023-03-03T02:08:40;38.33;;;20.03;;
4686;SDS011;2357;47.316;-1.348;2023-03-03T02:11:07;36.07;;;20.27;;
4686;SDS011;2357;47.316;-1.348;2023-03-03T02:13:33;45.73;;;22.10;;
4686;SDS011;2357;47.316;-1.348;2023-03-03T02:15:59;34.90;;;19.17;;
4686;SDS011;2357;47.316;-1.348;2023-03-03T02:18:24;33.10;;;19.50;;
4686;SDS011;2357;47.316;-1.348;2023-03-03T02:20:56;38.13;;;21.07;;
4686;SDS011;2357;47.316;-1.348;2023-03-03T02:26:45;38.20;;;19.90;;
4686;SDS011;2357;47.316;-1.348;2023-03-03T02:29:12;33.30;;;19.50;;
4686;SDS011;2357;47.316;-1.348;2023-03-03T02:31:38;37.33;;;21.07;;
4686;SDS011;2357;47.316;-1.348;2023-03-03T02:34:04;35.60;;;20.47;;
4686;SDS011;2357;47.316;-1.348;2023-03-03T02:36:31;41.13;;;21.20;;
4686;SDS011;2357;47.316;-1.348;2023-03-03T02:41:38;42.23;;;20.67;;
4686;SDS011;2357;47.316;-1.348;2023-03-03T02:44:10;36.50;;;20.37;;
4686;SDS011;2357;47.316;-1.348;2023-03-03T02:46:39;38.20;;;21.47;;
4686;SDS011;2357;47.316;-1.348;2023-03-03T02:49:08;39.33;;;21.60;;
4686;SDS011;2357;47.316;-1.348;2023-03-03T02:51:36;44.50;;;22.97;;
4686;SDS011;2357;47.316;-1.348;2023-03-03T02:54:03;37.30;;;21.27;;
4686;SDS011;2357;47.316;-1.348;2023-03-03T02:56:29;39.03;;;20.27;;
4686;SDS011;2357;47.316;-1.348;2023-03-03T02:58:55;40.13;;;22.33;;
4686;SDS011;2357;47.316;-1.348;2023-03-03T03:01:21;44.70;;;22.30;;
4686;SDS011;2357;47.316;-1.348;2023-03-03T03:03:47;38.43;;;21.90;;
4686;SDS011;2357;47.316;-1.348;2023-03-03T03:06:13;46.10;;;23.90;;
4686;SDS011;2357;47.316;-1.348;2023-03-03T03:08:39;41.73;;;24.20;;
4686;SDS011;2357;47.316;-1.348;2023-03-03T03:11:04;38.20;;;21.50;;
4686;SDS011;2357;47.316;-1.348;2023-03-03T03:13:31;45.03;;;21.27;;
4686;SDS011;2357;47.316;-1.348;2023-03-03T03:15:57;50.10;;;23.07;;
4686;SDS011;2357;47.316;-1.348;2023-03-03T03:18:23;44.10;;;22.10;;
4686;SDS011;2357;47.316;-1.348;2023-03-03T03:20:49;50.03;;;20.90;;
4686;SDS011;2357;47.316;-1.348;2023-03-03T03:23:15;50.50;;;22.50;;
4686;SDS011;2357;47.316;-1.348;2023-03-03T03:25:41;42.23;;;21.17;;
4686;SDS011;2357;47.316;-1.348;2023-03-03T03:28:13;38.77;;;21.17;;
4686;SDS011;2357;47.316;-1.348;2023-03-03T03:30:41;35.53;;;22.17;;
4686;SDS011;2357;47.316;-1.348;2023-03-03T03:33:09;47.47;;;23.17;;
4686;SDS011;2357;47.316;-1.348;2023-03-03T03:35:35;39.97;;;22.27;;
4686;SDS011;2357;47.316;-1.348;2023-03-03T03:38:01;38.20;;;21.17;;
4686;SDS011;2357;47.316;-1.348;2023-03-03T03:40:28;51.67;;;22.70;;
4686;SDS011;2357;47.316;-1.348;2023-03-03T03:42:53;45.30;;;22.30;;
4686;SDS011;2357;47.316;-1.348;2023-03-03T03:45:19;44.83;;;22.40;;
4686;SDS011;2357;47.316;-1.348;2023-03-03T03:47:45;40.80;;;22.47;;
4686;SDS011;2357;47.316;-1.348;2023-03-03T03:50:11;39.00;;;23.10;;
4686;SDS011;2357;47.316;-1.348;2023-03-03T03:52:37;59.43;;;23.83;;
4686;SDS011;2357;47.316;-1.348;2023-03-03T03:55:03;44.93;;;22.80;;
4686;SDS011;2357;47.316;-1.348;2023-03-03T03:57:29;46.37;;;24.27;;
4686;SDS011;2357;47.316;-1.348;2023-03-03T03:59:55;45.73;;;23.13;;
4686;SDS011;2357;47.316;-1.348;2023-03-03T04:02:21;41.33;;;23.53;;
4686;SDS011;2357;47.316;-1.348;2023-03-03T04:04:46;48.10;;;24.50;;
4686;SDS011;2357;47.316;-1.348;2023-03-03T04:07:12;48.60;;;24.43;;
4686;SDS011;2357;47.316;-1.348;2023-03-03T04:09:37;36.67;;;22.47;;
4686;SDS011;2357;47.316;-1.348;2023-03-03T04:12:03;39.60;;;23.90;;
4686;SDS011;2357;47.316;-1.348;2023-03-03T04:14:29;48.33;;;22.70;;
4686;SDS011;2357;47.316;-1.348;2023-03-03T04:16:54;45.23;;;23.37;;
4686;SDS011;2357;47.316;-1.348;2023-03-03T04:19:20;45.57;;;23.70;;
4686;SDS011;2357;47.316;-1.348;2023-03-03T04:21:46;45.73;;;23.90;;
4686;SDS011;2357;47.316;-1.348;2023-03-03T04:24:12;50.63;;;23.80;;
4686;SDS011;2357;47.316;-1.348;2023-03-03T04:26:37;40.20;;;22.37;;
4686;SDS011;2357;47.316;-1.348;2023-03-03T04:29:03;43.93;;;23.73;;
4686;SDS011;2357;47.316;-1.348;2023-03-03T04:31:29;42.63;;;22.57;;
4686;SDS011;2357;47.316;-1.348;2023-03-03T04:33:55;47.13;;;25.57;;
4686;SDS011;2357;47.316;-1.348;2023-03-03T04:36:20;52.03;;;26.13;;
4686;SDS011;2357;47.316;-1.348;2023-03-03T04:38:46;48.63;;;25.07;;
4686;SDS011;2357;47.316;-1.348;2023-03-03T04:41:13;47.93;;;24.83;;
4686;SDS011;2357;47.316;-1.348;2023-03-03T04:43:39;49.20;;;24.40;;
4686;SDS011;2357;47.316;-1.348;2023-03-03T04:46:04;43.83;;;23.83;;
4686;SDS011;2357;47.316;-1.348;2023-03-03T04:48:30;47.00;;;23.90;;
4686;SDS011;2357;47.316;-1.348;2023-03-03T04:50:56;41.63;;;22.93;;
4686;SDS011;2357;47.316;-1.348;2023-03-03T04:53:21;42.90;;;23.33;;
4686;SDS011;2357;47.316;-1.348;2023-03-03T04:55:53;60.57;;;27.50;;
4686;SDS011;2357;47.316;-1.348;2023-03-03T04:58:20;46.00;;;24.83;;
4686;SDS011;2357;47.316;-1.348;2023-03-03T05:00:46;39.30;;;23.17;;
4686;SDS011;2357;47.316;-1.348;2023-03-03T05:03:17;39.17;;;23.10;;
4686;SDS011;2357;47.316;-1.348;2023-03-03T05:05:43;47.07;;;26.20;;
4686;SDS011;2357;47.316;-1.348;2023-03-03T05:08:10;43.57;;;24.50;;
4686;SDS011;2357;47.316;-1.348;2023-03-03T05:10:36;45.60;;;24.30;;
4686;SDS011;2357;47.316;-1.348;2023-03-03T05:13:02;49.60;;;24.70;;
4686;SDS011;2357;47.316;-1.348;2023-03-03T05:15:29;45.40;;;24.43;;
4686;SDS011;2357;47.316;-1.348;2023-03-03T05:17:54;49.23;;;24.03;;
4686;SDS011;2357;47.316;-1.348;2023-03-03T05:20:20;47.97;;;23.83;;
4686;SDS011;2357;47.316;-1.348;2023-03-03T05:22:46;45.40;;;23.80;;
4686;SDS011;2357;47.316;-1.348;2023-03-03T05:25:12;46.63;;;24.60;;
4686;SDS011;2357;47.316;-1.348;2023-03-03T05:27:37;46.30;;;23.70;;
4686;SDS011;2357;47.316;-1.348;2023-03-03T05:30:03;59.33;;;25.83;;
4686;SDS011;2357;47.316;-1.348;2023-03-03T05:32:29;57.07;;;26.03;;
4686;SDS011;2357;47.316;-1.348;2023-03-03T05:34:55;52.83;;;26.37;;
4686;SDS011;2357;47.316;-1.348;2023-03-03T05:37:21;56.37;;;27.93;;
4686;SDS011;2357;47.316;-1.348;2023-03-03T05:39:48;46.50;;;24.27;;
4686;SDS011;2357;47.316;-1.348;2023-03-03T05:42:14;41.53;;;25.13;;
4686;SDS011;2357;47.316;-1.348;2023-03-03T05:44:39;45.17;;;24.83;;
4686;SDS011;2357;47.316;-1.348;2023-03-03T05:47:05;46.80;;;25.30;;
4686;SDS011;2357;47.316;-1.348;2023-03-03T05:49:31;46.33;;;24.43;;
4686;SDS011;2357;47.316;-1.348;2023-03-03T05:51:56;50.10;;;26.77;;
4686;SDS011;2357;47.316;-1.348;2023-03-03T05:54:23;48.97;;;25.63;;
4686;SDS011;2357;47.316;-1.348;2023-03-03T05:56:49;50.17;;;26.57;;
4686;SDS011;2357;47.316;-1.348;2023-03-03T05:59:14;47.63;;;24.87;;
4686;SDS011;2357;47.316;-1.348;2023-03-03T06:01:40;45.13;;;25.67;;
4686;SDS011;2357;47.316;-1.348;2023-03-03T06:04:06;53.13;;;25.47;;
4686;SDS011;2357;47.316;-1.348;2023-03-03T06:06:32;51.27;;;27.07;;
4686;SDS011;2357;47.316;-1.348;2023-03-03T06:08:58;51.57;;;25.37;;
4686;SDS011;2357;47.316;-1.348;2023-03-03T06:11:24;54.30;;;25.53;;
4686;SDS011;2357;47.316;-1.348;2023-03-03T06:13:49;48.63;;;26.90;;
4686;SDS011;2357;47.316;-1.348;2023-03-03T06:16:15;52.50;;;26.87;;
4686;SDS011;2357;47.316;-1.348;2023-03-03T06:18:41;50.00;;;26.13;;
4686;SDS011;2357;47.316;-1.348;2023-03-03T06:21:06;50.87;;;24.67;;
4686;SDS011;2357;47.316;-1.348;2023-03-03T06:23:32;50.63;;;25.20;;
4686;SDS011;2357;47.316;-1.348;2023-03-03T06:25:58;48.70;;;25.43;;
4686;SDS011;2357;47.316;-1.348;2023-03-03T06:28:23;49.80;;;25.20;;
4686;SDS011;2357;47.316;-1.348;2023-03-03T06:30:53;46.60;;;24.93;;
4686;SDS011;2357;47.316;-1.348;2023-03-03T06:33:19;54.97;;;26.63;;
4686;SDS011;2357;47.316;-1.348;2023-03-03T06:35:48;53.30;;;26.50;;
4686;SDS011;2357;47.316;-1.348;2023-03-03T06:38:17;44.87;;;25.43;;
4686;SDS011;2357;47.316;-1.348;2023-03-03T06:40:44;44.83;;;24.03;;
4686;SDS011;2357;47.316;-1.348;2023-03-03T06:43:11;58.10;;;26.60;;
4686;SDS011;2357;47.316;-1.348;2023-03-03T06:45:37;49.97;;;27.37;;
4686;SDS011;2357;47.316;-1.348;2023-03-03T06:48:03;52.43;;;27.97;;
4686;SDS011;2357;47.316;-1.348;2023-03-03T06:50:28;55.23;;;26.97;;
4686;SDS011;2357;47.316;-1.348;2023-03-03T06:53:01;53.47;;;27.23;;
4686;SDS011;2357;47.316;-1.348;2023-03-03T06:55:37;52.43;;;27.03;;
4686;SDS011;2357;47.316;-1.348;2023-03-03T06:58:11;54.33;;;27.60;;
4686;SDS011;2357;47.316;-1.348;2023-03-03T07:00:56;45.17;;;24.90;;
4686;SDS011;2357;47.316;-1.348;2023-03-03T07:03:29;45.47;;;25.37;;
4686;SDS011;2357;47.316;-1.348;2023-03-03T07:05:58;50.67;;;26.97;;
4686;SDS011;2357;47.316;-1.348;2023-03-03T07:08:24;63.00;;;27.67;;
4686;SDS011;2357;47.316;-1.348;2023-03-03T07:10:54;45.87;;;25.23;;
4686;SDS011;2357;47.316;-1.348;2023-03-03T07:13:21;52.40;;;25.47;;
4686;SDS011;2357;47.316;-1.348;2023-03-03T07:15:52;50.73;;;26.70;;
4686;SDS011;2357;47.316;-1.348;2023-03-03T07:18:35;46.77;;;26.27;;
4686;SDS011;2357;47.316;-1.348;2023-03-03T07:24:00;52.90;;;26.40;;
4686;SDS011;2357;47.316;-1.348;2023-03-03T07:26:50;51.07;;;27.53;;
4686;SDS011;2357;47.316;-1.348;2023-03-03T07:29:24;57.27;;;26.10;;
4686;SDS011;2357;47.316;-1.348;2023-03-03T07:31:51;49.80;;;26.03;;
4686;SDS011;2357;47.316;-1.348;2023-03-03T07:34:20;48.77;;;26.53;;
4686;SDS011;2357;47.316;-1.348;2023-03-03T07:37:08;49.30;;;26.37;;
4686;SDS011;2357;47.316;-1.348;2023-03-03T07:39:42;50.10;;;28.17;;
4686;SDS011;2357;47.316;-1.348;2023-03-03T07:42:25;45.03;;;26.30;;
4686;SDS011;2357;47.316;-1.348;2023-03-03T07:45:26;51.03;;;26.77;;
4686;SDS011;2357;47.316;-1.348;2023-03-03T07:51:02;45.20;;;25.30;;
4686;SDS011;2357;47.316;-1.348;2023-03-03T07:53:30;50.10;;;26.50;;
4686;SDS011;2357;47.316;-1.348;2023-03-03T07:55:59;56.00;;;26.02;;
4686;SDS011;2357;47.316;-1.348;2023-03-03T07:58:35;44.43;;;21.80;;
4686;SDS011;2357;47.316;-1.348;2023-03-03T08:03:58;45.07;;;24.73;;
4686;SDS011;2357;47.316;-1.348;2023-03-03T08:09:00;51.03;;;25.67;;
4686;SDS011;2357;47.316;-1.348;2023-03-03T08:11:43;46.90;;;24.67;;
4686;SDS011;2357;47.316;-1.348;2023-03-03T08:14:15;47.43;;;25.70;;
4686;SDS011;2357;47.316;-1.348;2023-03-03T08:16:45;47.53;;;26.17;;
4686;SDS011;2357;47.316;-1.348;2023-03-03T08:19:10;51.20;;;26.70;;
4686;SDS011;2357;47.316;-1.348;2023-03-03T08:21:37;52.73;;;27.60;;
4686;SDS011;2357;47.316;-1.348;2023-03-03T08:24:03;53.03;;;27.43;;
4686;SDS011;2357;47.316;-1.348;2023-03-03T08:26:29;53.10;;;28.90;;
4686;SDS011;2357;47.316;-1.348;2023-03-03T08:28:55;50.33;;;27.83;;
4686;SDS011;2357;47.316;-1.348;2023-03-03T08:31:20;57.53;;;30.10;;
4686;SDS011;2357;47.316;-1.348;2023-03-03T08:33:46;56.40;;;27.83;;
4686;SDS011;2357;47.316;-1.348;2023-03-03T08:36:12;60.33;;;27.63;;
4686;SDS011;2357;47.316;-1.348;2023-03-03T08:38:38;50.23;;;27.40;;
4686;SDS011;2357;47.316;-1.348;2023-03-03T08:41:04;54.10;;;26.40;;
4686;SDS011;2357;47.316;-1.348;2023-03-03T08:43:31;53.50;;;27.43;;
4686;SDS011;2357;47.316;-1.348;2023-03-03T08:45:57;42.33;;;25.03;;
4686;SDS011;2357;47.316;-1.348;2023-03-03T08:48:26;47.67;;;27.00;;
4686;SDS011;2357;47.316;-1.348;2023-03-03T08:50:52;49.83;;;26.33;;
4686;SDS011;2357;47.316;-1.348;2023-03-03T08:53:18;52.90;;;28.03;;
4686;SDS011;2357;47.316;-1.348;2023-03-03T08:55:45;60.07;;;25.80;;
4686;SDS011;2357;47.316;-1.348;2023-03-03T08:58:12;46.60;;;25.43;;
4686;SDS011;2357;47.316;-1.348;2023-03-03T09:00:38;52.70;;;27.67;;
4686;SDS011;2357;47.316;-1.348;2023-03-03T09:03:05;53.63;;;27.20;;
4686;SDS011;2357;47.316;-1.348;2023-03-03T09:05:34;61.10;;;27.60;;
4686;SDS011;2357;47.316;-1.348;2023-03-03T09:08:01;47.80;;;26.13;;
4686;SDS011;2357;47.316;-1.348;2023-03-03T09:10:28;55.00;;;28.47;;
4686;SDS011;2357;47.316;-1.348;2023-03-03T09:12:56;51.10;;;26.50;;
4686;SDS011;2357;47.316;-1.348;2023-03-03T09:15:32;49.53;;;27.60;;
4686;SDS011;2357;47.316;-1.348;2023-03-03T09:20:52;44.70;;;27.03;;
4686;SDS011;2357;47.316;-1.348;2023-03-03T09:25:55;52.50;;;26.73;;
4686;SDS011;2357;47.316;-1.348;2023-03-03T09:28:24;51.60;;;26.70;;
4686;SDS011;2357;47.316;-1.348;2023-03-03T09:30:58;51.70;;;25.23;;
4686;SDS011;2357;47.316;-1.348;2023-03-03T09:38:43;46.33;;;27.37;;
4686;SDS011;2357;47.316;-1.348;2023-03-03T09:43:47;54.10;;;27.13;;
4686;SDS011;2357;47.316;-1.348;2023-03-03T09:49:31;55.47;;;26.40;;
4686;SDS011;2357;47.316;-1.348;2023-03-03T10:05:50;51.13;;;27.30;;
4686;SDS011;2357;47.316;-1.348;2023-03-03T10:11:09;53.30;;;26.17;;
4686;SDS011;2357;47.316;-1.348;2023-03-03T10:13:48;49.07;;;25.67;;
4686;SDS011;2357;47.316;-1.348;2023-03-03T10:19:26;46.77;;;25.70;;
4686;SDS011;2357;47.316;-1.348;2023-03-03T10:22:18;47.20;;;26.50;;
4686;SDS011;2357;47.316;-1.348;2023-03-03T10:27:57;47.60;;;26.23;;
4686;SDS011;2357;47.316;-1.348;2023-03-03T10:38:22;51.10;;;24.73;;
4686;SDS011;2357;47.316;-1.348;2023-03-03T10:43:56;52.40;;;28.30;;
4686;SDS011;2357;47.316;-1.348;2023-03-03T11:00:20;56.93;;;24.33;;
4686;SDS011;2357;47.316;-1.348;2023-03-03T11:08:20;58.00;;;24.00;;
4686;SDS011;2357;47.316;-1.348;2023-03-03T11:11:08;45.60;;;23.70;;
4686;SDS011;2357;47.316;-1.348;2023-03-03T11:22:03;48.07;;;24.73;;
4686;SDS011;2357;47.316;-1.348;2023-03-03T11:33:14;50.93;;;24.97;;
4686;SDS011;2357;47.316;-1.348;2023-03-03T11:41:40;55.27;;;24.43;;
4686;SDS011;2357;47.316;-1.348;2023-03-03T11:44:28;51.10;;;24.10;;
4686;SDS011;2357;47.316;-1.348;2023-03-03T11:47:02;54.67;;;25.93;;
4686;SDS011;2357;47.316;-1.348;2023-03-03T11:52:30;52.27;;;25.70;;
4686;SDS011;2357;47.316;-1.348;2023-03-03T11:55:14;54.63;;;23.83;;
4686;SDS011;2357;47.316;-1.348;2023-03-03T12:00:22;57.30;;;25.50;;
4686;SDS011;2357;47.316;-1.348;2023-03-03T12:03:01;53.90;;;23.83;;
4686;SDS011;2357;47.316;-1.348;2023-03-03T12:05:50;49.80;;;24.20;;
4686;SDS011;2357;47.316;-1.348;2023-03-03T12:11:15;49.13;;;24.43;;
4686;SDS011;2357;47.316;-1.348;2023-03-03T12:14:01;53.07;;;24.17;;
4686;SDS011;2357;47.316;-1.348;2023-03-03T12:16:44;49.83;;;23.90;;
4686;SDS011;2357;47.316;-1.348;2023-03-03T12:22:12;50.87;;;23.70;;
4686;SDS011;2357;47.316;-1.348;2023-03-03T12:27:41;54.27;;;25.20;;
4686;SDS011;2357;47.316;-1.348;2023-03-03T12:38:37;46.70;;;22.87;;
4686;SDS011;2357;47.316;-1.348;2023-03-03T12:41:51;54.03;;;23.13;;
4686;SDS011;2357;47.316;-1.348;2023-03-03T12:46:45;51.93;;;22.77;;
4686;SDS011;2357;47.316;-1.348;2023-03-03T12:49:30;45.83;;;22.60;;
4686;SDS011;2357;47.316;-1.348;2023-03-03T12:52:49;44.37;;;22.57;;
4686;SDS011;2357;47.316;-1.348;2023-03-03T12:55:10;45.53;;;21.73;;
4686;SDS011;2357;47.316;-1.348;2023-03-03T13:19:28;45.50;;;22.90;;
4686;SDS011;2357;47.316;-1.348;2023-03-03T13:27:47;36.40;;;20.73;;
4686;SDS011;2357;47.316;-1.348;2023-03-03T13:30:20;44.10;;;23.37;;
4686;SDS011;2357;47.316;-1.348;2023-03-03T13:38:21;39.10;;;20.37;;
4686;SDS011;2357;47.316;-1.348;2023-03-03T13:49:59;38.50;;;20.83;;
4686;SDS011;2357;47.316;-1.348;2023-03-03T13:52:42;45.73;;;21.33;;
4686;SDS011;2357;47.316;-1.348;2023-03-03T14:06:37;39.90;;;20.80;;
4686;SDS011;2357;47.316;-1.348;2023-03-03T14:20:21;40.17;;;21.10;;
4686;SDS011;2357;47.316;-1.348;2023-03-03T14:25:50;48.83;;;20.97;;
4686;SDS011;2357;47.316;-1.348;2023-03-03T14:28:23;37.03;;;19.83;;
4686;SDS011;2357;47.316;-1.348;2023-03-03T14:30:52;36.60;;;19.70;;
4686;SDS011;2357;47.316;-1.348;2023-03-03T14:33:21;40.40;;;21.87;;
4686;SDS011;2357;47.316;-1.348;2023-03-03T14:38:23;33.97;;;18.30;;
4686;SDS011;2357;47.316;-1.348;2023-03-03T14:41:22;38.27;;;20.07;;
4686;SDS011;2357;47.316;-1.348;2023-03-03T14:44:01;37.67;;;19.00;;
4686;SDS011;2357;47.316;-1.348;2023-03-03T14:49:34;38.73;;;19.10;;
4686;SDS011;2357;47.316;-1.348;2023-03-03T14:54:39;33.90;;;18.53;;
4686;SDS011;2357;47.316;-1.348;2023-03-03T15:07:45;40.53;;;18.43;;
4686;SDS011;2357;47.316;-1.348;2023-03-03T15:10:28;33.33;;;16.70;;
4686;SDS011;2357;47.316;-1.348;2023-03-03T15:18:23;46.77;;;17.53;;
4686;SDS011;2357;47.316;-1.348;2023-03-03T15:27:02;51.87;;;17.50;;
4686;SDS011;2357;47.316;-1.348;2023-03-03T15:29:36;30.63;;;17.20;;
4686;SDS011;2357;47.316;-1.348;2023-03-03T15:32:24;33.50;;;17.73;;
4686;SDS011;2357;47.316;-1.348;2023-03-03T15:35:13;35.37;;;16.23;;
4686;SDS011;2357;47.316;-1.348;2023-03-03T15:43:18;39.20;;;17.33;;
4686;SDS011;2357;47.316;-1.348;2023-03-03T15:57:36;29.03;;;16.50;;
4686;SDS011;2357;47.316;-1.348;2023-03-03T16:00:31;29.90;;;16.67;;
4686;SDS011;2357;47.316;-1.348;2023-03-03T16:06:10;32.50;;;15.90;;
4686;SDS011;2357;47.316;-1.348;2023-03-03T16:08:57;27.90;;;16.60;;
4686;SDS011;2357;47.316;-1.348;2023-03-03T16:31:28;30.33;;;16.00;;
4686;SDS011;2357;47.316;-1.348;2023-03-03T16:39:49;27.37;;;16.20;;
4686;SDS011;2357;47.316;-1.348;2023-03-03T16:42:21;33.70;;;17.27;;
4686;SDS011;2357;47.316;-1.348;2023-03-03T17:04:01;30.60;;;17.10;;
4686;SDS011;2357;47.316;-1.348;2023-03-03T17:06:41;37.93;;;17.67;;
4686;SDS011;2357;47.316;-1.348;2023-03-03T17:12:46;31.37;;;16.00;;
4686;SDS011;2357;47.316;-1.348;2023-03-03T17:20:50;31.43;;;17.77;;
4686;SDS011;2357;47.316;-1.348;2023-03-03T17:23:31;33.47;;;17.03;;
4686;SDS011;2357;47.316;-1.348;2023-03-03T17:45:41;32.53;;;16.63;;
4686;SDS011;2357;47.316;-1.348;2023-03-03T17:50:55;32.07;;;17.40;;
4686;SDS011;2357;47.316;-1.348;2023-03-03T17:59:04;38.40;;;19.57;;
4686;SDS011;2357;47.316;-1.348;2023-03-03T18:18:02;35.80;;;20.10;;
4686;SDS011;2357;47.316;-1.348;2023-03-03T18:25:56;34.53;;;19.13;;
4686;SDS011;2357;47.316;-1.348;2023-03-03T18:28:35;32.20;;;18.03;;
4686;SDS011;2357;47.316;-1.348;2023-03-03T18:31:14;34.83;;;17.97;;
4686;SDS011;2357;47.316;-1.348;2023-03-03T18:38:56;39.53;;;19.73;;
4686;SDS011;2357;47.316;-1.348;2023-03-03T18:41:25;36.57;;;19.87;;
4686;SDS011;2357;47.316;-1.348;2023-03-03T18:43:56;39.30;;;21.00;;
4686;SDS011;2357;47.316;-1.348;2023-03-03T18:56:45;47.90;;;22.20;;
4686;SDS011;2357;47.316;-1.348;2023-03-03T19:02:40;44.27;;;25.00;;
4686;SDS011;2357;47.316;-1.348;2023-03-03T19:07:48;41.43;;;20.87;;
4686;SDS011;2357;47.316;-1.348;2023-03-03T19:21:19;44.97;;;19.80;;
4686;SDS011;2357;47.316;-1.348;2023-03-03T19:57:10;33.27;;;16.77;;
4686;SDS011;2357;47.316;-1.348;2023-03-03T20:00:47;26.87;;;15.10;;
4686;SDS011;2357;47.316;-1.348;2023-03-03T20:17:23;29.80;;;16.60;;
4686;SDS011;2357;47.316;-1.348;2023-03-03T20:25:48;27.80;;;15.10;;
4686;SDS011;2357;47.316;-1.348;2023-03-03T20:28:38;26.20;;;14.90;;
4686;SDS011;2357;47.316;-1.348;2023-03-03T20:34:10;30.00;;;14.93;;
4686;SDS011;2357;47.316;-1.348;2023-03-03T20:42:46;25.77;;;13.10;;
4686;SDS011;2357;47.316;-1.348;2023-03-03T20:53:07;31.13;;;13.10;;
4686;SDS011;2357;47.316;-1.348;2023-03-03T20:58:22;26.57;;;13.87;;
4686;SDS011;2357;47.316;-1.348;2023-03-03T21:01:05;21.60;;;12.77;;
4686;SDS011;2357;47.316;-1.348;2023-03-03T21:03:32;23.70;;;12.93;;
4686;SDS011;2357;47.316;-1.348;2023-03-03T21:06:01;19.50;;;12.17;;
4686;SDS011;2357;47.316;-1.348;2023-03-03T21:11:14;19.03;;;10.70;;
4686;SDS011;2357;47.316;-1.348;2023-03-03T21:13:46;20.33;;;11.67;;
4686;SDS011;2357;47.316;-1.348;2023-03-03T21:18:41;20.30;;;11.33;;
4686;SDS011;2357;47.316;-1.348;2023-03-03T21:21:11;21.53;;;12.00;;
4686;SDS011;2357;47.316;-1.348;2023-03-03T21:23:37;22.10;;;10.90;;
4686;SDS011;2357;47.316;-1.348;2023-03-03T21:26:03;19.20;;;9.80;;
4686;SDS011;2357;47.316;-1.348;2023-03-03T21:28:29;14.90;;;8.33;;
4686;SDS011;2357;47.316;-1.348;2023-03-03T21:31:18;15.23;;;7.63;;
4686;SDS011;2357;47.316;-1.348;2023-03-03T21:36:22;8.43;;;6.03;;
4686;SDS011;2357;47.316;-1.348;2023-03-03T21:39:00;11.47;;;7.50;;
4686;SDS011;2357;47.316;-1.348;2023-03-03T21:41:57;16.40;;;7.10;;
4686;SDS011;2357;47.316;-1.348;2023-03-03T21:47:03;10.03;;;7.07;;
4686;SDS011;2357;47.316;-1.348;2023-03-03T21:49:30;9.80;;;7.07;;
4686;SDS011;2357;47.316;-1.348;2023-03-03T21:51:56;15.00;;;8.40;;
4686;SDS011;2357;47.316;-1.348;2023-03-03T21:54:21;16.37;;;8.43;;
4686;SDS011;2357;47.316;-1.348;2023-03-03T21:56:48;12.83;;;7.27;;
4686;SDS011;2357;47.316;-1.348;2023-03-03T21:59:14;10.47;;;6.80;;
4686;SDS011;2357;47.316;-1.348;2023-03-03T22:01:40;9.60;;;6.53;;
4686;SDS011;2357;47.316;-1.348;2023-03-03T22:04:06;11.53;;;6.37;;
4686;SDS011;2357;47.316;-1.348;2023-03-03T22:06:32;8.60;;;6.30;;
4686;SDS011;2357;47.316;-1.348;2023-03-03T22:08:57;9.07;;;5.63;;
4686;SDS011;2357;47.316;-1.348;2023-03-03T22:11:23;7.87;;;5.73;;
4686;SDS011;2357;47.316;-1.348;2023-03-03T22:13:48;10.57;;;6.03;;
4686;SDS011;2357;47.316;-1.348;2023-03-03T22:16:14;10.10;;;5.70;;
4686;SDS011;2357;47.316;-1.348;2023-03-03T22:18:40;8.37;;;5.47;;
4686;SDS011;2357;47.316;-1.348;2023-03-03T22:21:05;25.40;;;5.27;;
4686;SDS011;2357;47.316;-1.348;2023-03-03T22:23:31;12.40;;;6.20;;
4686;SDS011;2357;47.316;-1.348;2023-03-03T22:25:57;14.40;;;6.30;;
4686;SDS011;2357;47.316;-1.348;2023-03-03T22:28:23;13.70;;;6.13;;
4686;SDS011;2357;47.316;-1.348;2023-03-03T22:30:49;9.40;;;5.27;;
4686;SDS011;2357;47.316;-1.348;2023-03-03T22:33:15;9.30;;;5.67;;
4686;SDS011;2357;47.316;-1.348;2023-03-03T22:35:40;8.90;;;5.43;;
4686;SDS011;2357;47.316;-1.348;2023-03-03T22:38:06;5.97;;;4.37;;
4686;SDS011;2357;47.316;-1.348;2023-03-03T22:40:32;12.37;;;5.87;;
4686;SDS011;2357;47.316;-1.348;2023-03-03T22:42:58;11.07;;;5.43;;
4686;SDS011;2357;47.316;-1.348;2023-03-03T22:45:23;8.80;;;5.00;;
4686;SDS011;2357;47.316;-1.348;2023-03-03T22:47:49;8.00;;;5.10;;
4686;SDS011;2357;47.316;-1.348;2023-03-03T22:50:15;19.47;;;6.00;;